sensor_id;sensor_type;location;lat;lon;timestamp;pressure;altitude;pressure_sealevel;temperature;humidity
11223;BME280;5668;52.012;8.724;2023-05-08T00:02:17;100788.63;;;14.04;73.24
11223;BME280;5668;52.012;8.724;2023-05-08T00:04:44;100781.09;;;14.00;72.75
11223;BME280;5668;52.012;8.724;2023-05-08T00:07:11;100773.03;;;13.91;73.28
11223;BME280;5668;52.012;8.724;2023-05-08T00:09:39;100782.63;;;13.91;73.44
11223;BME280;5668;52.012;8.724;2023-05-08T00:12:06;100786.22;;;13.90;73.86
11223;BME280;5668;52.012;8.724;2023-05-08T00:14:33;100787.28;;;13.87;73.76
11223;BME280;5668;52.012;8.724;2023-05-08T00:17:01;100787.16;;;13.89;73.32
11223;BME280;5668;52.012;8.724;2023-05-08T00:19:30;100783.09;;;13.85;73.82
11223;BME280;5668;52.012;8.724;2023-05-08T00:21:57;100783.94;;;13.85;74.29
11223;BME280;5668;52.012;8.724;2023-05-08T00:24:24;100793.56;;;13.85;74.27
11223;BME280;5668;52.012;8.724;2023-05-08T00:26:51;100785.97;;;13.82;73.63
11223;BME280;5668;52.012;8.724;2023-05-08T00:29:18;100781.69;;;13.81;74.32
11223;BME280;5668;52.012;8.724;2023-05-08T00:31:46;100776.56;;;13.79;74.34
11223;BME280;5668;52.012;8.724;2023-05-08T00:34:13;100783.59;;;13.79;74.24
11223;BME280;5668;52.012;8.724;2023-05-08T00:36:41;100783.59;;;13.79;73.91
11223;BME280;5668;52.012;8.724;2023-05-08T00:39:08;100782.03;;;13.76;74.41
11223;BME280;5668;52.012;8.724;2023-05-08T00:41:36;100782.28;;;13.73;74.27
11223;BME280;5668;52.012;8.724;2023-05-08T00:44:03;100774.44;;;13.73;74.15
11223;BME280;5668;52.012;8.724;2023-05-08T00:46:31;100784.25;;;13.70;73.94
11223;BME280;5668;52.012;8.724;2023-05-08T00:48:58;100780.34;;;13.64;74.72
11223;BME280;5668;52.012;8.724;2023-05-08T00:51:26;100778.56;;;13.65;75.13
11223;BME280;5668;52.012;8.724;2023-05-08T00:53:55;100774.66;;;13.59;74.71
11223;BME280;5668;52.012;8.724;2023-05-08T00:56:23;100764.31;;;13.57;75.35
11223;BME280;5668;52.012;8.724;2023-05-08T00:58:51;100775.59;;;13.58;74.63
11223;BME280;5668;52.012;8.724;2023-05-08T01:01:18;100764.31;;;13.57;75.60
11223;BME280;5668;52.012;8.724;2023-05-08T01:03:46;100760.75;;;13.59;75.66
11223;BME280;5668;52.012;8.724;2023-05-08T01:06:13;100758.13;;;13.59;75.00
11223;BME280;5668;52.012;8.724;2023-05-08T01:08:42;100758.72;;;13.51;75.31
11223;BME280;5668;52.012;8.724;2023-05-08T01:11:20;100756.22;;;13.49;75.65
11223;BME280;5668;52.012;8.724;2023-05-08T01:14:03;100755.28;;;13.50;75.76
11223;BME280;5668;52.012;8.724;2023-05-08T01:16:38;100752.19;;;13.56;75.62
11223;BME280;5668;52.012;8.724;2023-05-08T01:22:08;100754.78;;;13.45;75.64
11223;BME280;5668;52.012;8.724;2023-05-08T01:25:03;100749.78;;;13.42;75.94
11223;BME280;5668;52.012;8.724;2023-05-08T01:28:07;100754.38;;;13.39;75.79
11223;BME280;5668;52.012;8.724;2023-05-08T01:31:02;100749.06;;;13.40;76.33
11223;BME280;5668;52.012;8.724;2023-05-08T01:33:38;100752.63;;;13.39;76.25
11223;BME280;5668;52.012;8.724;2023-05-08T01:36:19;100760.44;;;13.39;76.51
11223;BME280;5668;52.012;8.724;2023-05-08T01:38:55;100753.44;;;13.40;76.83
11223;BME280;5668;52.012;8.724;2023-05-08T01:41:27;100752.84;;;13.36;76.98
11223;BME280;5668;52.012;8.724;2023-05-08T01:44:05;100751.19;;;13.35;76.79
11223;BME280;5668;52.012;8.724;2023-05-08T01:46:36;100757.56;;;13.31;76.91
11223;BME280;5668;52.012;8.724;2023-05-08T01:49:08;100755.19;;;13.28;76.70
11223;BME280;5668;52.012;8.724;2023-05-08T01:51:40;100753.53;;;13.27;77.69
11223;BME280;5668;52.012;8.724;2023-05-08T01:54:13;100760.53;;;13.27;77.30
11223;BME280;5668;52.012;8.724;2023-05-08T01:56:42;100755.31;;;13.27;77.60
11223;BME280;5668;52.012;8.724;2023-05-08T01:59:13;100748.31;;;13.27;76.69
11223;BME280;5668;52.012;8.724;2023-05-08T02:01:43;100751.66;;;13.29;76.88
11223;BME280;5668;52.012;8.724;2023-05-08T02:04:14;100749.97;;;13.28;77.07
11223;BME280;5668;52.012;8.724;2023-05-08T02:06:41;100752.81;;;13.25;77.00
11223;BME280;5668;52.012;8.724;2023-05-08T02:09:10;100757.91;;;13.27;76.97
11223;BME280;5668;52.012;8.724;2023-05-08T02:11:38;100746.16;;;13.21;77.21
11223;BME280;5668;52.012;8.724;2023-05-08T02:14:08;100752.69;;;13.27;76.94
11223;BME280;5668;52.012;8.724;2023-05-08T02:16:38;100748.22;;;13.29;76.91
11223;BME280;5668;52.012;8.724;2023-05-08T02:19:07;100752.69;;;13.27;77.39
11223;BME280;5668;52.012;8.724;2023-05-08T02:21:38;100749.47;;;13.23;76.88
11223;BME280;5668;52.012;8.724;2023-05-08T02:24:07;100753.88;;;13.23;77.17
11223;BME280;5668;52.012;8.724;2023-05-08T02:26:36;100747.84;;;13.22;77.95
11223;BME280;5668;52.012;8.724;2023-05-08T02:29:04;100752.22;;;13.22;77.58
11223;BME280;5668;52.012;8.724;2023-05-08T02:31:32;100749.81;;;13.18;78.28
11223;BME280;5668;52.012;8.724;2023-05-08T02:33:59;100749.94;;;13.17;78.31
11223;BME280;5668;52.012;8.724;2023-05-08T02:36:27;100748.41;;;13.14;78.01
11223;BME280;5668;52.012;8.724;2023-05-08T02:38:58;100757.91;;;13.15;78.13
11223;BME280;5668;52.012;8.724;2023-05-08T02:41:29;100753.47;;;13.16;77.30
11223;BME280;5668;52.012;8.724;2023-05-08T02:43:58;100750.16;;;13.14;78.06
11223;BME280;5668;52.012;8.724;2023-05-08T02:46:32;100754.19;;;13.18;78.00
11223;BME280;5668;52.012;8.724;2023-05-08T02:49:06;100760.50;;;13.15;77.52
11223;BME280;5668;52.012;8.724;2023-05-08T02:51:42;100756.63;;;13.08;77.41
11223;BME280;5668;52.012;8.724;2023-05-08T02:54:17;100761.03;;;13.08;78.41
11223;BME280;5668;52.012;8.724;2023-05-08T02:56:56;100753.91;;;13.10;77.95
11223;BME280;5668;52.012;8.724;2023-05-08T02:59:29;100753.31;;;13.06;78.03
11223;BME280;5668;52.012;8.724;2023-05-08T03:02:13;100758.53;;;13.06;78.61
11223;BME280;5668;52.012;8.724;2023-05-08T03:04:46;100748.09;;;13.06;77.99
11223;BME280;5668;52.012;8.724;2023-05-08T03:07:16;100756.38;;;13.00;78.29
11223;BME280;5668;52.012;8.724;2023-05-08T03:09:49;100755.41;;;13.01;77.93
11223;BME280;5668;52.012;8.724;2023-05-08T03:12:21;100745.31;;;12.97;78.14
11223;BME280;5668;52.012;8.724;2023-05-08T03:14:58;100747.28;;;12.93;78.78
11223;BME280;5668;52.012;8.724;2023-05-08T03:17:29;100743.88;;;12.93;78.94
11223;BME280;5668;52.012;8.724;2023-05-08T03:19:59;100739.59;;;12.92;78.73
11223;BME280;5668;52.012;8.724;2023-05-08T03:22:31;100739.09;;;12.87;79.23
11223;BME280;5668;52.012;8.724;2023-05-08T03:25:05;100743.88;;;12.93;78.86
11223;BME280;5668;52.012;8.724;2023-05-08T03:27:36;100749.81;;;12.95;78.92
11223;BME280;5668;52.012;8.724;2023-05-08T03:30:05;100745.53;;;12.94;78.03
11223;BME280;5668;52.012;8.724;2023-05-08T03:32:34;100747.53;;;12.90;78.34
11223;BME280;5668;52.012;8.724;2023-05-08T03:35:03;100747.75;;;12.87;78.91
11223;BME280;5668;52.012;8.724;2023-05-08T03:37:31;100745.97;;;12.88;78.71
11223;BME280;5668;52.012;8.724;2023-05-08T03:40:00;100738.88;;;12.90;78.32
11223;BME280;5668;52.012;8.724;2023-05-08T03:42:30;100747.63;;;12.89;78.69
11223;BME280;5668;52.012;8.724;2023-05-08T03:44:59;100745.75;;;12.91;78.83
11223;BME280;5668;52.012;8.724;2023-05-08T03:47:28;100732.63;;;12.92;78.59
11223;BME280;5668;52.012;8.724;2023-05-08T03:49:56;100739.81;;;12.89;78.20
11223;BME280;5668;52.012;8.724;2023-05-08T03:52:23;100734.59;;;12.89;78.21
11223;BME280;5668;52.012;8.724;2023-05-08T03:54:51;100737.66;;;12.83;79.43
11223;BME280;5668;52.012;8.724;2023-05-08T03:57:19;100732.53;;;12.81;79.08
11223;BME280;5668;52.012;8.724;2023-05-08T03:59:53;100733.59;;;12.78;79.50
11223;BME280;5668;52.012;8.724;2023-05-08T04:02:32;100733.00;;;12.75;78.99
11223;BME280;5668;52.012;8.724;2023-05-08T04:05:03;100734.78;;;12.74;79.33
11223;BME280;5668;52.012;8.724;2023-05-08T04:07:36;100736.34;;;12.77;79.07
11223;BME280;5668;52.012;8.724;2023-05-08T04:10:08;100741.22;;;12.82;79.34
11223;BME280;5668;52.012;8.724;2023-05-08T04:12:56;100744.25;;;12.75;79.25
11223;BME280;5668;52.012;8.724;2023-05-08T04:15:32;100750.31;;;12.76;79.16
11223;BME280;5668;52.012;8.724;2023-05-08T04:18:05;100738.22;;;12.75;79.71
11223;BME280;5668;52.012;8.724;2023-05-08T04:20:33;100739.03;;;12.75;79.34
11223;BME280;5668;52.012;8.724;2023-05-08T04:23:01;100732.38;;;12.71;79.42
11223;BME280;5668;52.012;8.724;2023-05-08T04:25:30;100741.16;;;12.70;79.05
11223;BME280;5668;52.012;8.724;2023-05-08T04:28:00;100737.09;;;12.66;79.55
11223;BME280;5668;52.012;8.724;2023-05-08T04:30:28;100733.66;;;12.66;80.14
11223;BME280;5668;52.012;8.724;2023-05-08T04:32:56;100729.28;;;12.66;79.51
11223;BME280;5668;52.012;8.724;2023-05-08T04:35:24;100728.31;;;12.67;79.75
11223;BME280;5668;52.012;8.724;2023-05-08T04:37:52;100731.03;;;12.66;79.97
11223;BME280;5668;52.012;8.724;2023-05-08T04:40:20;100737.09;;;12.66;80.03
11223;BME280;5668;52.012;8.724;2023-05-08T04:42:47;100733.25;;;12.59;80.03
11223;BME280;5668;52.012;8.724;2023-05-08T04:45:16;100727.22;;;12.59;80.66
11223;BME280;5668;52.012;8.724;2023-05-08T04:47:44;100728.88;;;12.60;79.95
11223;BME280;5668;52.012;8.724;2023-05-08T04:50:12;100728.66;;;12.63;80.37
11223;BME280;5668;52.012;8.724;2023-05-08T04:52:39;100733.25;;;12.59;80.13
11223;BME280;5668;52.012;8.724;2023-05-08T04:55:08;100735.88;;;12.59;80.74
11223;BME280;5668;52.012;8.724;2023-05-08T04:57:36;100741.09;;;12.59;80.88
11223;BME280;5668;52.012;8.724;2023-05-08T05:00:04;100746.91;;;12.63;80.43
11223;BME280;5668;52.012;8.724;2023-05-08T05:02:32;100740.97;;;12.61;80.50
11223;BME280;5668;52.012;8.724;2023-05-08T05:05:00;100745.34;;;12.60;80.76
11223;BME280;5668;52.012;8.724;2023-05-08T05:07:27;100748.16;;;12.57;80.41
11223;BME280;5668;52.012;8.724;2023-05-08T05:09:54;100756.22;;;12.54;81.16
11223;BME280;5668;52.012;8.724;2023-05-08T05:12:21;100757.06;;;12.55;80.96
11223;BME280;5668;52.012;8.724;2023-05-08T05:14:48;100762.13;;;12.56;81.11
11223;BME280;5668;52.012;8.724;2023-05-08T05:17:16;100764.66;;;12.58;80.98
11223;BME280;5668;52.012;8.724;2023-05-08T05:19:44;100768.00;;;12.60;80.62
11223;BME280;5668;52.012;8.724;2023-05-08T05:22:12;100767.78;;;12.63;81.34
11223;BME280;5668;52.012;8.724;2023-05-08T05:24:39;100771.00;;;12.66;81.11
11223;BME280;5668;52.012;8.724;2023-05-08T05:27:06;100767.09;;;12.72;81.33
11223;BME280;5668;52.012;8.724;2023-05-08T05:29:33;100770.53;;;12.72;81.17
11223;BME280;5668;52.012;8.724;2023-05-08T05:32:01;100773.88;;;12.74;81.26
11223;BME280;5668;52.012;8.724;2023-05-08T05:34:28;100771.06;;;12.77;81.63
11223;BME280;5668;52.012;8.724;2023-05-08T05:36:57;100771.78;;;12.79;81.21
11223;BME280;5668;52.012;8.724;2023-05-08T05:39:24;100777.00;;;12.79;81.29
11223;BME280;5668;52.012;8.724;2023-05-08T05:41:51;100789.47;;;12.87;81.55
11223;BME280;5668;52.012;8.724;2023-05-08T05:44:19;100778.72;;;12.92;81.35
11223;BME280;5668;52.012;8.724;2023-05-08T05:46:46;100776.81;;;12.94;81.25
11223;BME280;5668;52.012;8.724;2023-05-08T05:49:13;100785.50;;;12.94;81.27
11223;BME280;5668;52.012;8.724;2023-05-08T05:51:40;100787.34;;;13.05;81.32
11223;BME280;5668;52.012;8.724;2023-05-08T05:54:09;100786.88;;;13.11;80.85
11223;BME280;5668;52.012;8.724;2023-05-08T05:56:36;100790.75;;;13.18;80.66
11223;BME280;5668;52.012;8.724;2023-05-08T05:59:03;100791.56;;;13.18;80.98
11223;BME280;5668;52.012;8.724;2023-05-08T06:01:31;100788.63;;;13.23;80.52
11223;BME280;5668;52.012;8.724;2023-05-08T06:03:58;100790.06;;;13.27;80.89
11223;BME280;5668;52.012;8.724;2023-05-08T06:06:25;100794.53;;;13.38;80.29
11223;BME280;5668;52.012;8.724;2023-05-08T06:08:52;100793.44;;;13.40;80.14
11223;BME280;5668;52.012;8.724;2023-05-08T06:11:21;100792.97;;;13.46;79.84
11223;BME280;5668;52.012;8.724;2023-05-08T06:13:49;100793.38;;;13.53;79.32
11223;BME280;5668;52.012;8.724;2023-05-08T06:16:16;100795.28;;;13.62;79.75
11223;BME280;5668;52.012;8.724;2023-05-08T06:18:45;100789.50;;;13.70;79.27
11223;BME280;5668;52.012;8.724;2023-05-08T06:21:12;100792.84;;;13.72;79.19
11223;BME280;5668;52.012;8.724;2023-05-08T06:23:40;100802.81;;;13.78;78.97
11223;BME280;5668;52.012;8.724;2023-05-08T06:26:07;100805.94;;;13.83;78.84
11223;BME280;5668;52.012;8.724;2023-05-08T06:28:36;100804.84;;;13.85;77.85
11223;BME280;5668;52.012;8.724;2023-05-08T06:31:03;100809.03;;;13.88;77.75
11223;BME280;5668;52.012;8.724;2023-05-08T06:33:30;100811.53;;;13.89;78.44
11223;BME280;5668;52.012;8.724;2023-05-08T06:35:58;100813.56;;;13.97;78.01
11223;BME280;5668;52.012;8.724;2023-05-08T06:38:25;100807.84;;;14.03;77.45
11223;BME280;5668;52.012;8.724;2023-05-08T06:40:52;100811.28;;;14.15;77.19
11223;BME280;5668;52.012;8.724;2023-05-08T06:43:20;100815.25;;;14.20;77.31
11223;BME280;5668;52.012;8.724;2023-05-08T06:45:49;100814.28;;;14.32;77.25
11223;BME280;5668;52.012;8.724;2023-05-08T06:48:18;100811.00;;;14.42;77.28
11223;BME280;5668;52.012;8.724;2023-05-08T06:50:45;100814.09;;;14.47;76.87
11223;BME280;5668;52.012;8.724;2023-05-08T06:53:13;100812.06;;;14.50;76.93
11223;BME280;5668;52.012;8.724;2023-05-08T06:55:42;100819.31;;;14.58;77.40
11223;BME280;5668;52.012;8.724;2023-05-08T06:58:09;100811.56;;;14.67;77.59
11223;BME280;5668;52.012;8.724;2023-05-08T07:00:36;100811.56;;;14.79;77.38
11223;BME280;5668;52.012;8.724;2023-05-08T07:03:05;100817.59;;;14.90;77.00
11223;BME280;5668;52.012;8.724;2023-05-08T07:05:32;100807.34;;;14.98;76.75
11223;BME280;5668;52.012;8.724;2023-05-08T07:07:59;100801.38;;;15.07;76.65
11223;BME280;5668;52.012;8.724;2023-05-08T07:10:27;100797.75;;;15.20;76.90
11223;BME280;5668;52.012;8.724;2023-05-08T07:12:54;100802.69;;;15.34;76.11
11223;BME280;5668;52.012;8.724;2023-05-08T07:15:21;100794.91;;;15.43;75.50
11223;BME280;5668;52.012;8.724;2023-05-08T07:17:49;100804.56;;;15.54;75.16
11223;BME280;5668;52.012;8.724;2023-05-08T07:20:20;100802.69;;;15.66;74.29
11223;BME280;5668;52.012;8.724;2023-05-08T07:22:49;100806.22;;;15.76;73.64
11223;BME280;5668;52.012;8.724;2023-05-08T07:25:17;100802.56;;;15.88;73.84
11223;BME280;5668;52.012;8.724;2023-05-08T07:27:44;100791.88;;;16.01;73.29
11223;BME280;5668;52.012;8.724;2023-05-08T07:30:12;100798.00;;;16.11;72.75
11223;BME280;5668;52.012;8.724;2023-05-08T07:32:39;100799.13;;;16.18;72.43
11223;BME280;5668;52.012;8.724;2023-05-08T07:35:07;100800.84;;;16.29;72.09
11223;BME280;5668;52.012;8.724;2023-05-08T07:37:38;100798.94;;;16.40;71.82
11223;BME280;5668;52.012;8.724;2023-05-08T07:40:07;100794.69;;;16.49;71.57
11223;BME280;5668;52.012;8.724;2023-05-08T07:42:39;100790.22;;;16.60;71.33
11223;BME280;5668;52.012;8.724;2023-05-08T07:45:08;100791.19;;;16.69;70.91
11223;BME280;5668;52.012;8.724;2023-05-08T07:47:35;100792.47;;;16.75;70.81
11223;BME280;5668;52.012;8.724;2023-05-08T07:50:03;100793.75;;;16.90;69.89
11223;BME280;5668;52.012;8.724;2023-05-08T07:52:31;100785.31;;;16.96;70.14
11223;BME280;5668;52.012;8.724;2023-05-08T07:54:59;100783.66;;;17.05;69.42
11223;BME280;5668;52.012;8.724;2023-05-08T07:57:26;100782.00;;;17.13;68.46
11223;BME280;5668;52.012;8.724;2023-05-08T07:59:54;100780.19;;;17.23;68.72
11223;BME280;5668;52.012;8.724;2023-05-08T08:02:21;100780.22;;;17.33;68.37
11223;BME280;5668;52.012;8.724;2023-05-08T08:04:48;100777.59;;;17.42;68.38
11223;BME280;5668;52.012;8.724;2023-05-08T08:07:15;100783.63;;;17.53;68.13
11223;BME280;5668;52.012;8.724;2023-05-08T08:09:43;100772.72;;;17.57;68.50
11223;BME280;5668;52.012;8.724;2023-05-08T08:12:11;100770.63;;;17.61;67.97
11223;BME280;5668;52.012;8.724;2023-05-08T08:14:38;100768.16;;;17.69;68.06
11223;BME280;5668;52.012;8.724;2023-05-08T08:17:06;100760.13;;;17.80;67.69
11223;BME280;5668;52.012;8.724;2023-05-08T08:19:33;100761.72;;;17.91;67.57
11223;BME280;5668;52.012;8.724;2023-05-08T08:22:00;100762.16;;;17.96;67.56
11223;BME280;5668;52.012;8.724;2023-05-08T08:24:28;100763.38;;;18.01;66.89
11223;BME280;5668;52.012;8.724;2023-05-08T08:26:55;100761.00;;;18.08;67.42
11223;BME280;5668;52.012;8.724;2023-05-08T08:29:23;100767.88;;;18.18;67.48
11223;BME280;5668;52.012;8.724;2023-05-08T08:31:51;100764.34;;;18.28;66.69
11223;BME280;5668;52.012;8.724;2023-05-08T08:34:18;100760.47;;;18.32;66.90
11223;BME280;5668;52.012;8.724;2023-05-08T08:36:45;100759.19;;;18.36;66.92
11223;BME280;5668;52.012;8.724;2023-05-08T08:39:13;100753.19;;;18.43;67.14
11223;BME280;5668;52.012;8.724;2023-05-08T08:41:40;100751.81;;;18.49;66.92
11223;BME280;5668;52.012;8.724;2023-05-08T08:44:07;100751.34;;;18.53;66.96
11223;BME280;5668;52.012;8.724;2023-05-08T08:46:43;100743.44;;;18.63;66.60
11223;BME280;5668;52.012;8.724;2023-05-08T08:49:13;100753.06;;;18.72;66.72
11223;BME280;5668;52.012;8.724;2023-05-08T08:51:49;100748.88;;;18.79;66.83
11223;BME280;5668;52.012;8.724;2023-05-08T08:54:20;100746.97;;;18.89;66.84
11223;BME280;5668;52.012;8.724;2023-05-08T08:56:49;100737.91;;;19.02;67.19
11223;BME280;5668;52.012;8.724;2023-05-08T08:59:18;100741.25;;;19.12;67.03
11223;BME280;5668;52.012;8.724;2023-05-08T09:01:49;100741.19;;;19.21;66.93
11223;BME280;5668;52.012;8.724;2023-05-08T09:04:19;100744.41;;;19.33;66.52
11223;BME280;5668;52.012;8.724;2023-05-08T09:06:46;100745.00;;;19.45;65.97
11223;BME280;5668;52.012;8.724;2023-05-08T09:09:15;100748.56;;;19.53;64.84
11223;BME280;5668;52.012;8.724;2023-05-08T09:11:43;100746.63;;;19.63;64.43
11223;BME280;5668;52.012;8.724;2023-05-08T09:14:12;100753.94;;;19.69;64.31
11223;BME280;5668;52.012;8.724;2023-05-08T09:16:40;100752.50;;;19.75;64.73
11223;BME280;5668;52.012;8.724;2023-05-08T09:19:09;100752.38;;;19.85;64.31
11223;BME280;5668;52.012;8.724;2023-05-08T09:21:39;100744.69;;;19.91;64.69
11223;BME280;5668;52.012;8.724;2023-05-08T09:24:07;100738.63;;;19.99;64.86
11223;BME280;5668;52.012;8.724;2023-05-08T09:26:36;100750.19;;;20.06;64.82
11223;BME280;5668;52.012;8.724;2023-05-08T09:29:11;100742.97;;;20.16;65.35
11223;BME280;5668;52.012;8.724;2023-05-08T09:31:40;100736.06;;;20.23;65.46
11223;BME280;5668;52.012;8.724;2023-05-08T09:34:10;100745.66;;;20.32;65.12
11223;BME280;5668;52.012;8.724;2023-05-08T09:36:38;100742.13;;;20.41;64.56
11223;BME280;5668;52.012;8.724;2023-05-08T09:39:10;100737.84;;;20.48;64.26
11223;BME280;5668;52.012;8.724;2023-05-08T09:41:38;100743.47;;;20.54;64.51
11223;BME280;5668;52.012;8.724;2023-05-08T09:44:06;100743.81;;;20.59;64.53
11223;BME280;5668;52.012;8.724;2023-05-08T09:46:34;100736.38;;;20.62;64.13
11223;BME280;5668;52.012;8.724;2023-05-08T09:49:02;100736.56;;;20.69;63.94
11223;BME280;5668;52.012;8.724;2023-05-08T09:51:31;100737.56;;;20.76;64.22
11223;BME280;5668;52.012;8.724;2023-05-08T09:53:59;100739.41;;;20.83;64.30
11223;BME280;5668;52.012;8.724;2023-05-08T09:56:35;100743.22;;;20.89;64.33
11223;BME280;5668;52.012;8.724;2023-05-08T09:59:03;100744.53;;;20.93;64.65
11223;BME280;5668;52.012;8.724;2023-05-08T10:01:33;100744.88;;;20.98;64.83
11223;BME280;5668;52.012;8.724;2023-05-08T10:04:01;100737.13;;;21.05;65.12
11223;BME280;5668;52.012;8.724;2023-05-08T10:06:30;100744.06;;;21.14;65.09
11223;BME280;5668;52.012;8.724;2023-05-08T10:09:08;100736.00;;;21.23;64.74
11223;BME280;5668;52.012;8.724;2023-05-08T10:11:37;100739.78;;;21.29;64.61
11223;BME280;5668;52.012;8.724;2023-05-08T10:14:04;100743.94;;;21.40;63.98
11223;BME280;5668;52.012;8.724;2023-05-08T10:16:39;100737.66;;;21.49;63.21
11223;BME280;5668;52.012;8.724;2023-05-08T10:19:12;100742.25;;;21.55;63.05
11223;BME280;5668;52.012;8.724;2023-05-08T10:21:45;100738.94;;;21.61;63.25
11223;BME280;5668;52.012;8.724;2023-05-08T10:24:17;100739.91;;;21.68;63.61
11223;BME280;5668;52.012;8.724;2023-05-08T10:26:54;100734.63;;;21.76;62.59
11223;BME280;5668;52.012;8.724;2023-05-08T10:29:27;100743.19;;;21.86;62.37
11223;BME280;5668;52.012;8.724;2023-05-08T10:31:59;100738.06;;;21.93;62.23
11223;BME280;5668;52.012;8.724;2023-05-08T10:34:30;100739.06;;;22.00;62.98
11223;BME280;5668;52.012;8.724;2023-05-08T10:37:00;100736.53;;;22.07;62.39
11223;BME280;5668;52.012;8.724;2023-05-08T10:39:28;100731.53;;;22.12;62.00
11223;BME280;5668;52.012;8.724;2023-05-08T10:41:56;100732.19;;;22.22;61.69
11223;BME280;5668;52.012;8.724;2023-05-08T10:44:24;100725.19;;;22.29;61.45
11223;BME280;5668;52.012;8.724;2023-05-08T10:46:56;100721.03;;;22.34;62.15
11223;BME280;5668;52.012;8.724;2023-05-08T10:49:32;100726.44;;;22.41;60.89
11223;BME280;5668;52.012;8.724;2023-05-08T10:52:11;100729.25;;;22.48;60.05
11223;BME280;5668;52.012;8.724;2023-05-08T10:54:50;100718.94;;;22.53;60.75
11223;BME280;5668;52.012;8.724;2023-05-08T10:57:29;100724.38;;;22.59;60.99
11223;BME280;5668;52.012;8.724;2023-05-08T10:59:57;100719.03;;;22.67;61.16
11223;BME280;5668;52.012;8.724;2023-05-08T11:02:26;100722.31;;;22.77;61.00
11223;BME280;5668;52.012;8.724;2023-05-08T11:04:54;100716.31;;;22.84;59.80
11223;BME280;5668;52.012;8.724;2023-05-08T11:07:29;100715.41;;;22.91;59.20
11223;BME280;5668;52.012;8.724;2023-05-08T11:10:17;100704.91;;;22.98;59.62
11223;BME280;5668;52.012;8.724;2023-05-08T11:12:48;100708.50;;;23.05;59.14
11223;BME280;5668;52.012;8.724;2023-05-08T11:15:19;100710.28;;;23.12;59.51
11223;BME280;5668;52.012;8.724;2023-05-08T11:18:03;100705.06;;;23.19;58.86
11223;BME280;5668;52.012;8.724;2023-05-08T11:20:39;100714.97;;;23.25;57.84
11223;BME280;5668;52.012;8.724;2023-05-08T11:23:23;100706.75;;;23.35;58.33
11223;BME280;5668;52.012;8.724;2023-05-08T11:25:59;100703.03;;;23.44;57.92
11223;BME280;5668;52.012;8.724;2023-05-08T11:28:29;100703.47;;;23.47;57.86
11223;BME280;5668;52.012;8.724;2023-05-08T11:31:02;100694.09;;;23.60;56.52
11223;BME280;5668;52.012;8.724;2023-05-08T11:33:30;100693.81;;;23.69;57.20
11223;BME280;5668;52.012;8.724;2023-05-08T11:35:59;100696.38;;;23.77;56.86
11223;BME280;5668;52.012;8.724;2023-05-08T11:38:30;100691.44;;;23.89;57.19
11223;BME280;5668;52.012;8.724;2023-05-08T11:41:02;100704.63;;;23.97;56.47
11223;BME280;5668;52.012;8.724;2023-05-08T11:46:43;100698.84;;;24.08;55.41
11223;BME280;5668;52.012;8.724;2023-05-08T11:49:15;100699.09;;;24.13;54.93
11223;BME280;5668;52.012;8.724;2023-05-08T11:51:44;100702.03;;;24.18;54.82
11223;BME280;5668;52.012;8.724;2023-05-08T11:54:18;100697.84;;;24.24;55.37
11223;BME280;5668;52.012;8.724;2023-05-08T11:56:46;100697.25;;;24.28;54.38
11223;BME280;5668;52.012;8.724;2023-05-08T11:59:14;100694.91;;;24.34;54.58
11223;BME280;5668;52.012;8.724;2023-05-08T12:01:42;100701.47;;;24.38;54.74
11223;BME280;5668;52.012;8.724;2023-05-08T12:04:11;100700.28;;;24.40;55.06
11223;BME280;5668;52.012;8.724;2023-05-08T12:06:40;100697.06;;;24.45;54.72
11223;BME280;5668;52.012;8.724;2023-05-08T12:09:12;100702.00;;;24.48;53.60
11223;BME280;5668;52.012;8.724;2023-05-08T12:11:41;100714.41;;;24.41;50.66
11223;BME280;5668;52.012;8.724;2023-05-08T12:14:11;100707.91;;;24.28;51.99
11223;BME280;5668;52.012;8.724;2023-05-08T12:16:39;100701.41;;;24.31;52.64
11223;BME280;5668;52.012;8.724;2023-05-08T12:19:09;100694.25;;;24.32;53.30
11223;BME280;5668;52.012;8.724;2023-05-08T12:21:37;100701.03;;;24.34;53.55
11223;BME280;5668;52.012;8.724;2023-05-08T12:24:10;100702.88;;;24.34;53.36
11223;BME280;5668;52.012;8.724;2023-05-08T12:26:38;100698.19;;;24.36;53.03
11223;BME280;5668;52.012;8.724;2023-05-08T12:29:06;100696.09;;;24.31;53.23
11223;BME280;5668;52.012;8.724;2023-05-08T12:31:35;100695.66;;;24.27;52.85
11223;BME280;5668;52.012;8.724;2023-05-08T12:34:02;100693.34;;;24.24;52.67
11223;BME280;5668;52.012;8.724;2023-05-08T12:36:33;100692.09;;;24.20;52.92
11223;BME280;5668;52.012;8.724;2023-05-08T12:39:11;100700.66;;;24.22;53.26
11223;BME280;5668;52.012;8.724;2023-05-08T12:41:46;100686.56;;;24.22;54.18
11223;BME280;5668;52.012;8.724;2023-05-08T12:44:23;100680.44;;;24.21;54.56
11223;BME280;5668;52.012;8.724;2023-05-08T12:46:51;100676.75;;;24.22;54.62
11223;BME280;5668;52.012;8.724;2023-05-08T12:49:26;100674.09;;;24.22;55.39
11223;BME280;5668;52.012;8.724;2023-05-08T12:52:05;100675.94;;;24.22;54.79
11223;BME280;5668;52.012;8.724;2023-05-08T12:54:34;100681.47;;;24.20;54.87
11223;BME280;5668;52.012;8.724;2023-05-08T12:57:09;100672.81;;;24.18;54.02
11223;BME280;5668;52.012;8.724;2023-05-08T12:59:43;100671.44;;;24.22;54.24
11223;BME280;5668;52.012;8.724;2023-05-08T13:02:15;100669.34;;;24.18;54.10
11223;BME280;5668;52.012;8.724;2023-05-08T13:04:43;100667.69;;;24.17;54.61
11223;BME280;5668;52.012;8.724;2023-05-08T13:07:11;100657.88;;;24.17;54.04
11223;BME280;5668;52.012;8.724;2023-05-08T13:09:38;100664.03;;;24.18;52.83
11223;BME280;5668;52.012;8.724;2023-05-08T13:12:06;100662.88;;;24.20;53.56
11223;BME280;5668;52.012;8.724;2023-05-08T13:14:33;100665.78;;;24.25;53.83
11223;BME280;5668;52.012;8.724;2023-05-08T13:17:02;100666.22;;;24.29;53.89
11223;BME280;5668;52.012;8.724;2023-05-08T13:19:29;100661.78;;;24.36;54.37
11223;BME280;5668;52.012;8.724;2023-05-08T13:21:56;100658.69;;;24.33;52.45